createdAt,value
2023-05-10T00:01:15.436Z,12.81
2023-05-10T00:02:18.651Z,12.75
2023-05-10T00:03:54.762Z,12.75
2023-05-10T00:04:58.433Z,12.75
2023-05-10T00:06:01.762Z,12.75
2023-05-10T00:07:36.873Z,12.75
2023-05-10T00:08:39.939Z,12.75
2023-05-10T00:09:42.989Z,12.75
2023-05-10T00:11:17.906Z,12.81
2023-05-10T00:12:20.975Z,12.81
2023-05-10T00:13:24.356Z,12.81
2023-05-10T00:15:00.015Z,12.81
2023-05-10T00:16:03.216Z,12.75
2023-05-10T00:17:06.734Z,12.75
2023-05-10T00:18:41.892Z,12.75
2023-05-10T00:19:45.095Z,12.81
2023-05-10T00:20:48.045Z,12.81
2023-05-10T00:22:23.149Z,12.81
2023-05-10T00:23:26.266Z,12.81
2023-05-10T00:24:29.337Z,12.81
2023-05-10T00:26:04.101Z,12.75
2023-05-10T00:27:07.468Z,12.75
2023-05-10T00:28:10.708Z,12.75
2023-05-10T00:29:45.670Z,12.75
2023-05-10T00:30:48.846Z,12.81
2023-05-10T00:31:51.888Z,12.75
2023-05-10T00:33:27.428Z,12.75
2023-05-10T00:34:30.342Z,12.75
2023-05-10T00:35:33.497Z,12.75
2023-05-10T00:37:08.481Z,12.75
2023-05-10T00:38:11.830Z,12.75
2023-05-10T00:39:15.018Z,12.75
2023-05-10T00:40:50.353Z,12.75
2023-05-10T00:41:53.341Z,12.75
2023-05-10T00:42:56.334Z,12.75
2023-05-10T00:44:31.086Z,12.75
2023-05-10T00:45:34.154Z,12.75
2023-05-10T00:46:37.507Z,12.75
2023-05-10T00:48:12.615Z,12.75
2023-05-10T00:49:15.919Z,12.75
2023-05-10T00:50:19.093Z,12.75
2023-05-10T00:51:54.062Z,12.75
2023-05-10T00:52:57.159Z,12.75
2023-05-10T00:54:00.502Z,12.75
2023-05-10T00:55:35.362Z,12.75
2023-05-10T00:56:38.258Z,12.75
2023-05-10T00:57:41.043Z,12.81
2023-05-10T00:59:16.009Z,12.75
2023-05-10T01:01:15.146Z,12.75
2023-05-10T01:02:18.710Z,12.81
2023-05-10T01:03:54.554Z,12.81
2023-05-10T01:04:57.612Z,12.75
2023-05-10T01:06:01.504Z,12.75
2023-05-10T01:07:36.323Z,12.75
2023-05-10T01:08:39.355Z,12.81
2023-05-10T01:09:42.451Z,12.75
2023-05-10T01:11:17.313Z,12.75
2023-05-10T01:12:20.141Z,12.81
2023-05-10T01:13:23.515Z,12.81
2023-05-10T01:14:58.395Z,12.81
2023-05-10T01:16:01.212Z,12.81
2023-05-10T01:17:04.660Z,12.81
2023-05-10T01:18:39.663Z,12.88
2023-05-10T01:19:42.713Z,12.88
2023-05-10T01:20:45.949Z,12.88
2023-05-10T01:22:20.651Z,12.88
2023-05-10T01:23:23.611Z,12.88
2023-05-10T01:24:26.573Z,12.88
2023-05-10T01:26:01.420Z,12.81
2023-05-10T01:27:04.293Z,12.81
2023-05-10T01:28:07.151Z,12.81
2023-05-10T01:29:41.727Z,12.81
2023-05-10T01:31:08.460Z,12.81
2023-05-10T01:32:11.986Z,12.81
2023-05-10T01:33:46.814Z,12.81
2023-05-10T01:34:49.655Z,12.81
2023-05-10T01:35:52.655Z,12.81
2023-05-10T01:37:27.517Z,12.75
2023-05-10T01:38:30.813Z,12.75
2023-05-10T01:39:33.832Z,12.75
2023-05-10T01:41:08.699Z,12.69
2023-05-10T01:42:11.795Z,12.69
2023-05-10T01:43:14.796Z,12.69
2023-05-10T01:44:49.456Z,12.69
2023-05-10T01:45:52.301Z,12.69
2023-05-10T01:46:55.500Z,12.69
2023-05-10T01:48:30.338Z,12.69
2023-05-10T01:49:33.342Z,12.69
2023-05-10T01:50:36.383Z,12.69
2023-05-10T01:52:10.867Z,12.69
2023-05-10T01:53:13.999Z,12.63
2023-05-10T01:54:17.153Z,12.63
2023-05-10T01:55:51.841Z,12.69
2023-05-10T01:56:55.054Z,12.69
2023-05-10T01:57:58.164Z,12.69
2023-05-10T01:59:33.154Z,12.69
2023-05-10T02:01:15.624Z,12.69
2023-05-10T02:02:18.784Z,12.69
2023-05-10T02:03:54.232Z,12.69
2023-05-10T02:04:57.568Z,12.69
2023-05-10T02:06:00.358Z,12.69
2023-05-10T02:07:34.901Z,12.69
2023-05-10T02:08:37.753Z,12.69
2023-05-10T02:09:40.733Z,12.69
2023-05-10T02:11:15.458Z,12.63
2023-05-10T02:12:18.446Z,12.69
2023-05-10T02:13:21.707Z,12.63
2023-05-10T02:14:56.886Z,12.63
2023-05-10T02:15:59.746Z,12.63
2023-05-10T02:17:02.990Z,12.63
2023-05-10T02:18:37.648Z,12.63
2023-05-10T02:19:40.653Z,12.63
2023-05-10T02:20:43.730Z,12.63
2023-05-10T02:22:18.349Z,12.63
2023-05-10T02:23:21.400Z,12.63
2023-05-10T02:24:24.246Z,12.63
2023-05-10T02:25:58.802Z,12.63
2023-05-10T02:27:01.837Z,12.63
2023-05-10T02:28:04.796Z,12.63
2023-05-10T02:29:39.839Z,12.63
2023-05-10T02:30:42.804Z,12.63
2023-05-10T02:31:46.101Z,12.63
2023-05-10T02:33:21.523Z,12.56
2023-05-10T02:34:24.867Z,12.56
2023-05-10T02:35:27.933Z,12.56
2023-05-10T02:37:02.527Z,12.56
2023-05-10T02:38:05.717Z,12.56
2023-05-10T02:39:08.620Z,12.56
2023-05-10T02:40:43.649Z,12.56
2023-05-10T02:41:46.457Z,12.56
2023-05-10T02:42:49.256Z,12.56
2023-05-10T02:44:24.022Z,12.56
2023-05-10T02:45:27.089Z,12.56
2023-05-10T02:46:30.258Z,12.56
2023-05-10T02:48:05.574Z,12.56
2023-05-10T02:49:08.796Z,12.50
2023-05-10T02:50:11.807Z,12.50
2023-05-10T02:51:47.247Z,12.50
2023-05-10T02:52:50.104Z,12.50
2023-05-10T02:53:53.095Z,12.56
2023-05-10T02:55:27.663Z,12.56
2023-05-10T02:56:30.692Z,12.56
2023-05-10T02:57:33.597Z,12.56
2023-05-10T02:59:08.164Z,12.56
2023-05-10T03:00:12.253Z,12.63
2023-05-10T03:01:15.645Z,12.63
2023-05-10T03:02:18.919Z,12.63
2023-05-10T03:03:54.137Z,12.56
2023-05-10T03:04:57.416Z,12.56
2023-05-10T03:06:00.651Z,12.56
2023-05-10T03:07:35.573Z,12.63
2023-05-10T03:08:38.459Z,12.63
2023-05-10T03:09:41.505Z,12.56
2023-05-10T03:11:16.320Z,12.56
2023-05-10T03:12:19.174Z,12.56
2023-05-10T03:13:22.261Z,12.56
2023-05-10T03:14:57.237Z,12.56
2023-05-10T03:15:59.986Z,12.63
2023-05-10T03:17:03.529Z,12.63
2023-05-10T03:18:38.725Z,12.63
2023-05-10T03:19:41.816Z,12.56
2023-05-10T03:20:45.119Z,12.56
2023-05-10T03:22:19.986Z,12.63
2023-05-10T03:23:23.250Z,12.63
2023-05-10T03:24:26.242Z,12.63
2023-05-10T03:26:00.805Z,12.63
2023-05-10T03:27:03.497Z,12.63
2023-05-10T03:28:06.469Z,12.63
2023-05-10T03:29:41.093Z,12.63
2023-05-10T03:30:43.906Z,12.63
2023-05-10T03:31:47.217Z,12.63
2023-05-10T03:33:21.863Z,12.63
2023-05-10T03:34:25.047Z,12.63
2023-05-10T03:35:28.024Z,12.63
2023-05-10T03:37:02.795Z,12.63
2023-05-10T03:38:06.005Z,12.63
2023-05-10T03:39:11.311Z,12.63
2023-05-10T03:40:46.020Z,12.63
2023-05-10T03:41:49.054Z,12.63
2023-05-10T03:42:51.915Z,12.56
2023-05-10T03:44:26.508Z,12.56
2023-05-10T03:45:29.455Z,12.56
2023-05-10T03:46:32.411Z,12.56
2023-05-10T03:48:07.923Z,12.56
2023-05-10T03:49:10.945Z,12.56
2023-05-10T03:50:14.398Z,12.56
2023-05-10T03:51:49.845Z,12.56
2023-05-10T03:52:54.764Z,12.56
2023-05-10T03:53:58.020Z,12.56
2023-05-10T03:55:32.755Z,12.56
2023-05-10T03:56:35.828Z,12.56
2023-05-10T03:57:38.861Z,12.56
2023-05-10T03:59:13.576Z,12.56
2023-05-10T04:01:15.219Z,12.50
2023-05-10T04:02:18.388Z,12.56
2023-05-10T04:03:54.400Z,12.50
2023-05-10T04:04:57.723Z,12.50
2023-05-10T04:05:41.623Z,12.50
2023-05-10T04:06:45.190Z,12.50
2023-05-10T04:07:48.229Z,12.44
2023-05-10T04:09:23.076Z,12.44
2023-05-10T04:10:26.128Z,12.44
2023-05-10T04:11:29.162Z,12.44
2023-05-10T04:13:04.425Z,12.44
2023-05-10T04:14:07.709Z,12.44
2023-05-10T04:15:11.118Z,12.44
2023-05-10T04:16:46.062Z,12.44
2023-05-10T04:17:49.694Z,12.44
2023-05-10T04:18:55.300Z,12.44
2023-05-10T04:20:30.284Z,12.44
2023-05-10T04:21:33.356Z,12.44
2023-05-10T04:22:36.493Z,12.50
2023-05-10T04:24:11.710Z,12.44
2023-05-10T04:25:15.825Z,12.50
2023-05-10T04:26:19.225Z,12.44
2023-05-10T04:27:54.301Z,12.44
2023-05-10T04:28:57.324Z,12.44
2023-05-10T04:30:00.379Z,12.44
2023-05-10T04:31:35.830Z,12.44
2023-05-10T04:32:39.054Z,12.44
2023-05-10T04:33:42.795Z,12.44
2023-05-10T04:35:17.667Z,12.44
2023-05-10T04:36:20.927Z,12.44
2023-05-10T04:37:23.887Z,12.44
2023-05-10T04:38:58.906Z,12.44
2023-05-10T04:40:02.386Z,12.44
2023-05-10T04:41:05.666Z,12.44
2023-05-10T04:42:41.075Z,12.50
2023-05-10T04:43:44.054Z,12.50
2023-05-10T04:44:46.982Z,12.50
2023-05-10T04:46:22.054Z,12.50
2023-05-10T04:47:25.593Z,12.50
2023-05-10T04:48:29.023Z,12.56
2023-05-10T04:50:04.113Z,12.56
2023-05-10T04:51:07.488Z,12.56
2023-05-10T04:52:10.453Z,12.56
2023-05-10T04:53:51.147Z,12.56
2023-05-10T04:55:04.251Z,12.56
2023-05-10T04:56:07.487Z,12.63
2023-05-10T04:57:42.309Z,12.56
2023-05-10T04:58:45.303Z,12.56
2023-05-10T04:59:50.359Z,12.56
2023-05-10T05:00:11.792Z,12.56
2023-05-10T05:01:15.157Z,12.56
2023-05-10T05:02:19.085Z,12.56
2023-05-10T05:03:55.599Z,12.56
2023-05-10T05:04:58.702Z,12.56
2023-05-10T05:06:02.211Z,12.50
2023-05-10T05:07:37.253Z,12.50
2023-05-10T05:08:40.184Z,12.50
2023-05-10T05:09:43.163Z,12.56
2023-05-10T05:11:17.873Z,12.56
2023-05-10T05:12:20.760Z,12.56
2023-05-10T05:13:24.055Z,12.50
2023-05-10T05:14:59.069Z,12.50
2023-05-10T05:16:01.951Z,12.50
2023-05-10T05:17:05.509Z,12.50
2023-05-10T05:18:40.525Z,12.50
2023-05-10T05:19:43.680Z,12.50
2023-05-10T05:20:46.894Z,12.50
2023-05-10T05:22:21.826Z,12.50
2023-05-10T05:23:24.987Z,12.50
2023-05-10T05:24:28.249Z,12.50
2023-05-10T05:26:03.265Z,12.50
2023-05-10T05:27:06.353Z,12.50
2023-05-10T05:28:09.565Z,12.50
2023-05-10T05:29:44.579Z,12.50
2023-05-10T05:30:47.534Z,12.44
2023-05-10T05:31:51.928Z,12.50
2023-05-10T05:33:28.673Z,12.44
2023-05-10T05:34:31.797Z,12.44
2023-05-10T05:35:35.118Z,12.44
2023-05-10T05:37:12.571Z,12.44
2023-05-10T05:38:15.667Z,12.44
2023-05-10T05:39:18.696Z,12.44
2023-05-10T05:40:53.636Z,12.38
2023-05-10T05:41:56.425Z,12.38
2023-05-10T05:42:59.500Z,12.44
2023-05-10T05:44:34.648Z,12.38
2023-05-10T05:45:37.699Z,12.38
2023-05-10T05:46:41.334Z,12.38
2023-05-10T05:48:16.144Z,12.38
2023-05-10T05:49:19.256Z,12.38
2023-05-10T05:50:22.279Z,12.38
2023-05-10T05:51:56.943Z,12.44
2023-05-10T05:53:00.207Z,12.44
2023-05-10T05:54:03.335Z,12.44
2023-05-10T05:55:38.451Z,12.44
2023-05-10T05:56:41.692Z,12.44
2023-05-10T05:57:47.403Z,12.44
2023-05-10T05:59:22.574Z,12.50
2023-05-10T06:01:15.522Z,12.50
2023-05-10T06:02:18.528Z,12.50
2023-05-10T06:03:54.714Z,12.50
2023-05-10T06:04:58.469Z,12.50
2023-05-10T06:06:02.028Z,12.56
2023-05-10T06:07:37.270Z,12.56
2023-05-10T06:08:40.661Z,12.50
2023-05-10T06:09:43.869Z,12.50
2023-05-10T06:11:18.939Z,12.50
2023-05-10T06:12:22.180Z,12.50
2023-05-10T06:13:25.610Z,12.50
2023-05-10T06:15:00.863Z,12.50
2023-05-10T06:16:04.435Z,12.50
2023-05-10T06:17:07.720Z,12.44
2023-05-10T06:18:42.790Z,12.44
2023-05-10T06:19:45.739Z,12.50
2023-05-10T06:20:48.979Z,12.50
2023-05-10T06:22:23.850Z,12.44
2023-05-10T06:23:26.872Z,12.44
2023-05-10T06:24:29.744Z,12.44
2023-05-10T06:26:04.741Z,12.50
2023-05-10T06:27:07.695Z,12.50
2023-05-10T06:28:10.933Z,12.50
2023-05-10T06:29:45.873Z,12.50
2023-05-10T06:31:05.617Z,12.56
2023-05-10T06:32:09.116Z,12.63
2023-05-10T06:33:44.545Z,12.63
2023-05-10T06:34:48.674Z,12.56
2023-05-10T06:35:51.958Z,12.56
2023-05-10T06:37:27.093Z,12.56
2023-05-10T06:38:30.338Z,12.56
2023-05-10T06:39:33.505Z,12.56
2023-05-10T06:41:08.520Z,12.50
2023-05-10T06:42:11.822Z,12.50
2023-05-10T06:43:14.828Z,12.50
2023-05-10T06:44:50.015Z,12.50
2023-05-10T06:45:53.844Z,12.50
2023-05-10T06:46:57.322Z,12.50
2023-05-10T06:48:32.441Z,12.50
2023-05-10T06:49:35.962Z,12.50
2023-05-10T06:50:38.847Z,12.50
2023-05-10T06:52:14.246Z,12.50
2023-05-10T06:53:19.118Z,12.50
2023-05-10T06:54:22.284Z,12.50
2023-05-10T06:55:57.364Z,12.44
2023-05-10T06:57:03.147Z,12.44
2023-05-10T06:58:27.910Z,12.44
2023-05-10T07:00:12.087Z,12.44
2023-05-10T07:01:15.945Z,12.44
2023-05-10T07:02:19.754Z,12.44
2023-05-10T07:03:55.197Z,12.50
2023-05-10T07:05:00.853Z,12.50
2023-05-10T07:06:07.190Z,12.50
2023-05-10T07:08:02.975Z,12.50
2023-05-10T07:09:06.223Z,12.50
2023-05-10T07:10:09.429Z,12.50
2023-05-10T07:11:44.664Z,12.56
2023-05-10T07:12:51.262Z,12.56
2023-05-10T07:13:55.334Z,12.56
2023-05-10T07:15:30.115Z,12.56
2023-05-10T07:16:33.561Z,12.63
2023-05-10T07:17:37.248Z,12.63
2023-05-10T07:19:16.267Z,12.63
2023-05-10T07:20:19.433Z,12.63
2023-05-10T07:21:22.722Z,12.63
2023-05-10T07:22:57.974Z,12.63
2023-05-10T07:24:00.852Z,12.63
2023-05-10T07:25:03.821Z,12.63
2023-05-10T07:26:39.263Z,12.69
2023-05-10T07:27:42.226Z,12.69
2023-05-10T07:28:45.227Z,12.69
2023-05-10T07:30:19.910Z,12.69
2023-05-10T07:31:23.149Z,12.69
2023-05-10T07:32:26.811Z,12.69
2023-05-10T07:34:02.756Z,12.75
2023-05-10T07:35:05.738Z,12.69
2023-05-10T07:36:09.614Z,12.69
2023-05-10T07:37:44.822Z,12.69
2023-05-10T07:38:47.766Z,12.69
2023-05-10T07:40:02.714Z,12.69
2023-05-10T07:41:37.860Z,12.69
2023-05-10T07:42:40.868Z,12.69
2023-05-10T07:43:43.944Z,12.69
2023-05-10T07:45:18.912Z,12.69
2023-05-10T07:46:22.410Z,12.69
2023-05-10T07:47:25.630Z,12.69
2023-05-10T07:49:01.006Z,12.75
2023-05-10T07:50:04.098Z,12.75
2023-05-10T07:51:07.171Z,12.75
2023-05-10T07:52:42.018Z,12.75
2023-05-10T07:53:45.315Z,12.75
2023-05-10T07:54:48.610Z,12.75
2023-05-10T07:56:23.933Z,12.69
2023-05-10T07:57:27.367Z,12.69
2023-05-10T07:58:30.592Z,12.69
2023-05-10T08:00:12.511Z,12.69
2023-05-10T08:01:15.635Z,12.69
2023-05-10T08:02:18.935Z,12.69
2023-05-10T08:03:55.320Z,12.75
2023-05-10T08:04:59.490Z,12.75
2023-05-10T08:06:03.227Z,12.75
2023-05-10T08:07:38.381Z,12.81
2023-05-10T08:08:41.452Z,12.81
2023-05-10T08:09:44.628Z,12.81
2023-05-10T08:11:19.669Z,12.88
2023-05-10T08:12:24.249Z,12.94
2023-05-10T08:13:27.279Z,12.94
2023-05-10T08:15:02.360Z,13.06
2023-05-10T08:16:05.775Z,13.13
2023-05-10T08:17:09.503Z,13.13
2023-05-10T08:18:47.559Z,13.19
2023-05-10T08:19:51.034Z,13.19
2023-05-10T08:20:54.328Z,13.25
2023-05-10T08:22:29.302Z,13.31
2023-05-10T08:23:33.416Z,13.31
2023-05-10T08:24:36.834Z,13.38
2023-05-10T08:26:11.921Z,13.44
2023-05-10T08:27:15.179Z,13.44
2023-05-10T08:28:18.155Z,13.50
2023-05-10T08:29:53.295Z,13.50
2023-05-10T08:30:56.506Z,13.44
2023-05-10T08:31:59.933Z,13.50
2023-05-10T08:33:35.144Z,13.44
2023-05-10T08:34:41.078Z,13.38
2023-05-10T08:35:43.964Z,13.38
2023-05-10T08:37:18.691Z,13.38
2023-05-10T08:38:21.653Z,13.38
2023-05-10T08:39:30.340Z,13.44
2023-05-10T08:41:05.730Z,13.38
2023-05-10T08:42:08.927Z,13.38
2023-05-10T08:43:12.120Z,13.38
2023-05-10T08:44:49.440Z,13.44
2023-05-10T08:45:53.232Z,13.44
2023-05-10T08:46:56.566Z,13.50
2023-05-10T08:48:31.627Z,13.38
2023-05-10T08:49:34.833Z,13.38
2023-05-10T08:50:37.897Z,13.38
2023-05-10T08:52:12.776Z,13.38
2023-05-10T08:53:15.783Z,13.38
2023-05-10T08:54:18.938Z,13.44
2023-05-10T08:55:54.234Z,13.44
2023-05-10T08:56:57.235Z,13.44
2023-05-10T08:58:00.280Z,13.44
2023-05-10T08:59:35.371Z,13.44
2023-05-10T09:00:12.308Z,13.44
2023-05-10T09:01:15.285Z,13.44
2023-05-10T09:02:18.991Z,13.44
2023-05-10T09:03:54.161Z,13.50
2023-05-10T09:04:58.172Z,13.56
2023-05-10T09:06:02.028Z,13.63
2023-05-10T09:07:36.942Z,13.63
2023-05-10T09:08:39.794Z,13.69
2023-05-10T09:09:42.914Z,13.81
2023-05-10T09:11:17.636Z,13.81
2023-05-10T09:12:20.685Z,13.88
2023-05-10T09:13:23.801Z,13.94
2023-05-10T09:14:58.630Z,13.94
2023-05-10T09:16:13.616Z,13.94
2023-05-10T09:17:23.596Z,13.94
2023-05-10T09:19:01.585Z,14.00
2023-05-10T09:20:04.988Z,13.94
2023-05-10T09:21:07.837Z,14.00
2023-05-10T09:22:42.708Z,14.00
2023-05-10T09:23:48.039Z,14.00
2023-05-10T09:24:51.647Z,13.94
2023-05-10T09:26:27.131Z,13.88
2023-05-10T09:27:30.162Z,13.81
2023-05-10T09:28:33.383Z,13.81
2023-05-10T09:30:08.346Z,13.81
2023-05-10T09:31:11.693Z,13.81
2023-05-10T09:32:15.356Z,13.81
2023-05-10T09:33:50.615Z,13.75
2023-05-10T09:34:53.833Z,13.75
2023-05-10T09:35:57.343Z,13.75
2023-05-10T09:37:32.017Z,13.75
2023-05-10T09:38:35.123Z,13.75
2023-05-10T09:39:37.989Z,13.75
2023-05-10T09:41:12.788Z,13.75
2023-05-10T09:42:15.717Z,13.69
2023-05-10T09:43:18.764Z,13.69
2023-05-10T09:44:53.612Z,13.63
2023-05-10T09:45:56.991Z,13.56
2023-05-10T09:47:00.287Z,13.63
2023-05-10T09:48:35.059Z,13.63
2023-05-10T09:49:38.217Z,13.69
2023-05-10T09:50:41.348Z,13.69
2023-05-10T09:52:16.188Z,13.75
2023-05-10T09:53:19.179Z,13.75
2023-05-10T09:54:22.244Z,13.69
2023-05-10T09:55:57.007Z,13.69
2023-05-10T09:56:59.874Z,13.69
2023-05-10T09:58:03.114Z,13.75
2023-05-10T09:59:38.119Z,13.75
2023-05-10T10:00:11.882Z,13.69
2023-05-10T10:01:14.803Z,13.69
2023-05-10T10:02:18.398Z,13.69
2023-05-10T10:03:53.897Z,13.69
2023-05-10T10:04:57.281Z,13.69
2023-05-10T10:06:00.974Z,13.69
2023-05-10T10:07:54.350Z,13.63
2023-05-10T10:08:57.668Z,13.69
2023-05-10T10:10:00.833Z,13.63
2023-05-10T10:11:36.910Z,13.63
2023-05-10T10:12:40.061Z,13.63
2023-05-10T10:13:42.920Z,13.63
2023-05-10T10:15:18.385Z,13.63
2023-05-10T10:16:22.166Z,13.63
2023-05-10T10:17:49.290Z,13.63
2023-05-10T10:19:24.586Z,13.69
2023-05-10T10:20:27.759Z,13.75
2023-05-10T10:21:31.156Z,13.81
2023-05-10T10:23:06.544Z,13.81
2023-05-10T10:24:09.869Z,13.88
2023-05-10T10:25:12.975Z,13.88
2023-05-10T10:26:48.522Z,13.88
2023-05-10T10:27:51.689Z,13.94
2023-05-10T10:28:54.701Z,13.88
2023-05-10T10:30:29.634Z,13.94
2023-05-10T10:31:32.603Z,13.94
2023-05-10T10:32:36.070Z,14.00
2023-05-10T10:34:28.905Z,14.06
2023-05-10T10:35:31.954Z,14.06
2023-05-10T10:36:35.030Z,14.06
2023-05-10T10:38:09.975Z,14.06
2023-05-10T10:39:12.937Z,14.13
2023-05-10T10:40:15.938Z,14.13
2023-05-10T10:41:53.074Z,14.19
2023-05-10T10:42:56.221Z,14.19
2023-05-10T10:43:59.344Z,14.25
2023-05-10T10:45:34.577Z,14.31
2023-05-10T10:46:39.474Z,14.38
2023-05-10T10:47:43.423Z,14.38
2023-05-10T10:49:18.514Z,14.38
2023-05-10T10:50:21.638Z,14.38
2023-05-10T10:51:24.895Z,14.38
2023-05-10T10:52:59.936Z,14.38
2023-05-10T10:54:03.607Z,14.38
2023-05-10T10:55:06.524Z,14.38
2023-05-10T10:56:41.853Z,14.38
2023-05-10T10:57:44.962Z,14.38
2023-05-10T10:58:48.312Z,14.38
2023-05-10T11:00:12.516Z,14.38
2023-05-10T11:01:15.740Z,14.44
2023-05-10T11:02:19.316Z,14.44
2023-05-10T11:03:55.426Z,14.50
2023-05-10T11:04:58.794Z,14.50
2023-05-10T11:06:02.008Z,14.50
2023-05-10T11:07:36.891Z,14.56
2023-05-10T11:08:39.823Z,14.63
2023-05-10T11:09:42.763Z,14.69
2023-05-10T11:11:17.860Z,14.69
2023-05-10T11:12:21.020Z,14.75
2023-05-10T11:13:23.963Z,14.81
2023-05-10T11:15:03.286Z,14.88
2023-05-10T11:16:06.951Z,14.94
2023-05-10T11:17:10.592Z,15.00
2023-05-10T11:18:45.826Z,15.06
2023-05-10T11:19:50.008Z,15.13
2023-05-10T11:20:53.272Z,15.19
2023-05-10T11:22:27.849Z,15.25
2023-05-10T11:23:30.657Z,15.31
2023-05-10T11:24:33.706Z,15.31
2023-05-10T11:26:08.533Z,15.38
2023-05-10T11:27:11.555Z,15.38
2023-05-10T11:28:14.703Z,15.38
2023-05-10T11:29:50.022Z,15.44
2023-05-10T11:30:56.736Z,15.44
2023-05-10T11:32:00.157Z,15.50
2023-05-10T11:33:35.477Z,15.50
2023-05-10T11:34:38.438Z,15.56
2023-05-10T11:35:43.345Z,15.56
2023-05-10T11:37:18.528Z,15.63
2023-05-10T11:38:21.415Z,15.69
2023-05-10T11:39:24.450Z,15.69
2023-05-10T11:40:59.193Z,15.69
2023-05-10T11:42:01.946Z,15.63
2023-05-10T11:43:04.809Z,15.63
2023-05-10T11:44:39.925Z,15.56
2023-05-10T11:45:43.087Z,15.50
2023-05-10T11:46:46.738Z,15.44
2023-05-10T11:48:21.841Z,15.44
2023-05-10T11:49:25.136Z,15.50
2023-05-10T11:50:28.326Z,15.50
2023-05-10T11:52:03.429Z,15.50
2023-05-10T11:53:06.499Z,15.44
2023-05-10T11:54:12.051Z,15.50
2023-05-10T11:55:46.745Z,15.50
2023-05-10T11:56:49.727Z,15.56
2023-05-10T11:57:52.797Z,15.56
2023-05-10T11:59:28.084Z,15.69
2023-05-10T12:01:15.161Z,15.81
2023-05-10T12:02:18.450Z,15.81
2023-05-10T12:03:55.048Z,15.88
2023-05-10T12:05:00.122Z,15.88
2023-05-10T12:06:03.671Z,15.94
2023-05-10T12:07:39.080Z,16.00
2023-05-10T12:08:42.391Z,16.06
2023-05-10T12:09:45.530Z,16.06
2023-05-10T12:11:20.632Z,16.13
2023-05-10T12:12:25.202Z,16.13
2023-05-10T12:13:28.192Z,16.13
2023-05-10T12:15:02.844Z,16.13
2023-05-10T12:16:05.828Z,16.13
2023-05-10T12:17:08.997Z,16.19
2023-05-10T12:18:44.029Z,16.19
2023-05-10T12:19:48.034Z,16.19
2023-05-10T12:20:51.950Z,16.06
2023-05-10T12:22:26.926Z,16.06
2023-05-10T12:23:29.862Z,16.06
2023-05-10T12:24:32.949Z,16.00
2023-05-10T12:26:07.915Z,16.00
2023-05-10T12:27:11.260Z,15.94
2023-05-10T12:28:14.187Z,15.94
2023-05-10T12:29:48.768Z,15.94
2023-05-10T12:30:52.233Z,15.94
2023-05-10T12:31:55.424Z,15.94
2023-05-10T12:33:30.750Z,15.94
2023-05-10T12:34:33.833Z,15.94
2023-05-10T12:35:36.925Z,15.88
2023-05-10T12:37:12.424Z,15.94
2023-05-10T12:38:15.401Z,15.88
2023-05-10T12:39:18.478Z,15.88
2023-05-10T12:40:53.273Z,15.88
2023-05-10T12:41:57.050Z,15.88
2023-05-10T12:42:59.969Z,15.88
2023-05-10T12:44:35.052Z,15.88
2023-05-10T12:45:38.043Z,15.88
2023-05-10T12:46:41.310Z,15.88
2023-05-10T12:48:16.101Z,15.81
2023-05-10T12:49:19.379Z,15.81
2023-05-10T12:50:22.891Z,15.81
2023-05-10T12:51:57.801Z,15.81
2023-05-10T12:53:00.747Z,15.81
2023-05-10T12:54:03.787Z,15.81
2023-05-10T12:55:38.616Z,15.75
2023-05-10T12:56:41.678Z,15.69
2023-05-10T12:57:44.614Z,15.63
2023-05-10T12:59:27.652Z,15.56
2023-05-10T13:01:15.526Z,15.50
2023-05-10T13:02:19.366Z,15.44
2023-05-10T13:03:54.547Z,15.44
2023-05-10T13:04:57.926Z,15.44
2023-05-10T13:06:01.270Z,15.38
2023-05-10T13:07:36.306Z,15.38
2023-05-10T13:08:39.182Z,15.38
2023-05-10T13:09:42.130Z,15.38
2023-05-10T13:11:17.000Z,15.44
2023-05-10T13:12:20.057Z,15.44
2023-05-10T13:13:22.996Z,15.38
2023-05-10T13:14:57.719Z,15.44
2023-05-10T13:16:00.770Z,15.44
2023-05-10T13:17:04.555Z,15.44
2023-05-10T13:18:41.380Z,15.44
2023-05-10T13:19:45.120Z,15.44
2023-05-10T13:20:48.271Z,15.44
2023-05-10T13:22:36.484Z,15.44
2023-05-10T13:23:44.139Z,15.44
2023-05-10T13:24:46.988Z,15.44
2023-05-10T13:26:22.063Z,15.44
2023-05-10T13:27:25.216Z,15.50
2023-05-10T13:28:28.209Z,15.56
2023-05-10T13:30:03.149Z,15.63
2023-05-10T13:31:06.163Z,15.63
2023-05-10T13:32:09.635Z,15.63
2023-05-10T13:33:44.702Z,15.69
2023-05-10T13:34:48.016Z,15.69
2023-05-10T13:35:50.816Z,15.69
2023-05-10T13:37:25.659Z,15.81
2023-05-10T13:38:28.629Z,15.81
2023-05-10T13:39:31.422Z,15.88
2023-05-10T13:41:06.901Z,15.94
2023-05-10T13:42:09.707Z,16.00
2023-05-10T13:43:12.626Z,16.00
2023-05-10T13:44:47.976Z,16.06
2023-05-10T13:45:51.336Z,16.06
2023-05-10T13:46:54.691Z,16.06
2023-05-10T13:48:29.674Z,16.19
2023-05-10T13:49:36.188Z,16.19
2023-05-10T13:50:38.982Z,16.25
2023-05-10T13:52:13.726Z,16.31
2023-05-10T13:53:16.673Z,16.31
2023-05-10T13:54:19.650Z,16.25
2023-05-10T13:55:54.322Z,16.25
2023-05-10T13:56:57.387Z,16.25
2023-05-10T13:58:00.587Z,16.25
2023-05-10T13:59:35.559Z,16.25
2023-05-10T14:00:12.323Z,16.19
2023-05-10T14:01:15.149Z,16.19
2023-05-10T14:02:18.546Z,16.25
2023-05-10T14:03:54.304Z,16.25
2023-05-10T14:04:58.006Z,16.31
2023-05-10T14:06:06.560Z,16.31
2023-05-10T14:07:41.515Z,16.31
2023-05-10T14:08:44.360Z,16.31
2023-05-10T14:09:47.232Z,16.31
2023-05-10T14:11:24.492Z,16.31
2023-05-10T14:12:27.762Z,16.31
2023-05-10T14:13:30.599Z,16.38
2023-05-10T14:15:05.438Z,16.31
2023-05-10T14:16:09.247Z,16.38
2023-05-10T14:17:12.699Z,16.38
2023-05-10T14:18:48.095Z,16.25
2023-05-10T14:19:51.484Z,16.25
2023-05-10T14:20:54.892Z,16.25
2023-05-10T14:22:29.915Z,16.25
2023-05-10T14:23:33.143Z,16.31
2023-05-10T14:24:36.333Z,16.31
2023-05-10T14:26:11.330Z,16.31
2023-05-10T14:27:14.203Z,16.38
2023-05-10T14:28:17.306Z,16.38
2023-05-10T14:29:52.515Z,16.38
2023-05-10T14:30:55.662Z,16.44
2023-05-10T14:31:58.838Z,16.44
2023-05-10T14:33:34.601Z,16.44
2023-05-10T14:34:37.519Z,16.44
2023-05-10T14:35:40.542Z,16.50
2023-05-10T14:37:15.427Z,16.50
2023-05-10T14:38:18.334Z,16.56
2023-05-10T14:39:21.295Z,16.56
2023-05-10T14:40:56.130Z,16.56
2023-05-10T14:42:00.750Z,16.63
2023-05-10T14:43:03.682Z,16.63
2023-05-10T14:44:38.480Z,16.69
2023-05-10T14:45:41.540Z,16.69
2023-05-10T14:46:44.768Z,16.75
2023-05-10T14:48:20.292Z,16.75
2023-05-10T14:49:23.212Z,16.81
2023-05-10T14:50:36.606Z,16.81
2023-05-10T14:52:12.347Z,16.94
2023-05-10T14:53:15.265Z,16.94
2023-05-10T14:54:18.462Z,17.00
2023-05-10T14:55:53.635Z,17.00
2023-05-10T14:56:56.605Z,17.00
2023-05-10T14:57:59.504Z,17.00
2023-05-10T14:59:35.074Z,17.00
2023-05-10T15:00:11.889Z,17.00
2023-05-10T15:01:15.680Z,16.94
2023-05-10T15:02:21.751Z,17.00
2023-05-10T15:04:01.647Z,17.00
2023-05-10T15:05:09.704Z,17.00
2023-05-10T15:06:15.365Z,17.06
2023-05-10T15:07:50.205Z,17.06
2023-05-10T15:08:53.251Z,17.06
2023-05-10T15:09:56.040Z,17.13
2023-05-10T15:11:30.969Z,17.19
2023-05-10T15:12:33.861Z,17.19
2023-05-10T15:13:36.898Z,17.19
2023-05-10T15:15:11.562Z,17.19
2023-05-10T15:16:14.872Z,17.13
2023-05-10T15:17:22.077Z,17.19
2023-05-10T15:18:59.975Z,17.19
2023-05-10T15:20:03.135Z,17.19
2023-05-10T15:21:06.374Z,17.19
2023-05-10T15:22:41.016Z,17.19
2023-05-10T15:23:43.989Z,17.19
2023-05-10T15:24:46.870Z,17.25
2023-05-10T15:26:22.344Z,17.31
2023-05-10T15:27:25.386Z,17.38
2023-05-10T15:28:28.706Z,17.38
2023-05-10T15:30:04.180Z,17.50
2023-05-10T15:31:07.279Z,17.56
2023-05-10T15:32:10.534Z,17.63
2023-05-10T15:33:45.532Z,17.63
2023-05-10T15:34:48.300Z,17.63
2023-05-10T15:35:51.653Z,17.63
2023-05-10T15:37:26.783Z,17.63
2023-05-10T15:38:29.902Z,17.56
2023-05-10T15:39:32.754Z,17.50
2023-05-10T15:41:10.001Z,17.44
2023-05-10T15:42:12.935Z,17.44
2023-05-10T15:43:15.762Z,17.31
2023-05-10T15:44:50.317Z,17.19
2023-05-10T15:45:53.711Z,17.13
2023-05-10T15:46:57.043Z,17.06
2023-05-10T15:48:32.191Z,17.00
2023-05-10T15:49:34.985Z,16.94
2023-05-10T15:50:38.016Z,16.94
2023-05-10T15:52:12.714Z,16.94
2023-05-10T15:53:15.741Z,16.94
2023-05-10T15:54:41.246Z,16.88
2023-05-10T15:56:15.785Z,16.81
2023-05-10T15:57:18.638Z,16.81